Zaanborg — PCKW — position and weather

sailwx.info

Track history (hours):
 
Tides and Currents Weather Stations Pressure Air Temp Water Temp Dewpoint Dewpoint Depression Visibility Wind Speed Wind Dir Waves Ship Positions

Zaanborg

Last reported at 2017-Sep-24 12:51 UTC. Time now 2017-Sep-25 11:33 UTC.
Position N 58°41' W 002°33'.

Length 118 m; draft 7.2 m.

Type: Cargo ship. MMSI: 244830818.

Date/timePositionNaut miles runAvg speedWind from/ knotsBaromVisibWave heightAir tempDewpointWater temp
2017-Sep-24 12:51N 58°41' W 002°33'3 9.8
2017-Sep-24 12:30N 58°41' W 002°40'611.1
2017-Sep-24 12:00N 58°42' W 002°50'815.5
2017-Sep-24 11:30N 58°42' W 003°05'715.0
2017-Sep-24 11:00N 58°42' W 003°19'713.4
2017-Sep-24 10:30N 58°42' W 003°32'612.7
2017-Sep-24 10:00N 58°42' W 003°44'612.3
2017-Sep-24 09:30N 58°41' W 003°56'612.4
2017-Sep-24 09:00N 58°41' W 004°08'3510.9
2017-Sep-24 05:49N 58°31' W 005°13'410.7
2017-Sep-24 05:29N 58°29' W 005°17'309 6.0
2017-Sep-22 01:56N 53°21' W 006°13'0 0.0
2017-Sep-21 21:27N 53°21' W 006°13'0 0.0
2017-Sep-21 21:00N 53°21' W 006°13'0 0.0
2017-Sep-21 20:30N 53°21' W 006°13'0 0.0
2017-Sep-21 20:00N 53°21' W 006°13'0 0.0
2017-Sep-21 18:41N 53°21' W 006°13'0 0.0
2017-Sep-21 18:20N 53°21' W 006°13'0 0.0
2017-Sep-21 16:20N 53°21' W 006°13'0 0.0
2017-Sep-21 15:50N 53°21' W 006°13'0 0.0
2017-Sep-21 15:30N 53°21' W 006°13'0 0.0
2017-Sep-21 14:59N 53°21' W 006°13'0 0.0
2017-Sep-21 13:53N 53°21' W 006°13'0 0.0
2017-Sep-21 12:23N 53°21' W 006°13'0 0.0
2017-Sep-21 11:44N 53°21' W 006°13'0 0.0
2017-Sep-21 10:33N 53°21' W 006°13'0 0.0
2017-Sep-21 10:30N 53°21' W 006°13'0 0.0
2017-Sep-21 04:16N 53°21' W 006°13'0 0.0
2017-Sep-21 03:14N 53°21' W 006°13'0 0.0
2017-Sep-21 00:46N 53°21' W 006°13'0 0.0
2017-Sep-21 00:27N 53°21' W 006°13'1 3.0
2017-Sep-21 00:00N 53°21' W 006°11'4 1.5
2017-Sep-20 21:05N 53°19' W 006°04'0 0.1
2017-Sep-20 20:59N 53°19' W 006°04'0 0.0
2017-Sep-20 20:28N 53°19' W 006°04'0 0.0
2017-Sep-20 19:50N 53°19' W 006°04'0 0.0
2017-Sep-20 19:26N 53°19' W 006°04'0 0.1
2017-Sep-20 18:52N 53°19' W 006°04'1 2.9
2017-Sep-20 18:28N 53°19' W 006°02'5111.4
2017-Sep-20 14:00N 52°28' W 005°50'510.0
2017-Sep-20 13:30N 52°23' W 005°50'510.2
2017-Sep-20 13:01N 52°18' W 005°50'510.5
2017-Sep-20 12:30N 52°13' W 005°49'510.8
2017-Sep-20 12:00N 52°07' W 005°49'3612.8
2017-Sep-20 09:12N 51°31' W 005°49'2013.3
2017-Sep-20 07:42N 51°12' W 005°50'312.9
2017-Sep-20 07:30N 51°09' W 005°50'812.8
2017-Sep-20 06:52N 51°01' W 005°50'513.0
2017-Sep-20 06:29N 50°56' W 005°50'613.0
2017-Sep-20 06:01N 50°50' W 005°50'713.2
2017-Sep-20 05:30N 50°43' W 005°51'713.3
2017-Sep-20 05:01N 50°36' W 005°51'713.4
2017-Sep-20 04:31N 50°30' W 005°50'713.8
2017-Sep-20 04:00N 50°23' W 005°52'713.9
2017-Sep-20 03:30N 50°16' W 005°52'814.3
2017-Sep-20 02:57N 50°08' W 005°52'814.2
2017-Sep-20 02:25N 50°00' W 005°52'512.6
2017-Sep-20 02:00N 49°59' W 005°44'612.7
2017-Sep-20 01:30N 49°58' W 005°34'612.3
2017-Sep-20 01:00N 49°57' W 005°25'612.8
2017-Sep-20 00:30N 49°56' W 005°15'713.4
2017-Sep-20 00:00N 49°56' W 005°05'713.3
2017-Sep-19 23:30N 49°57' W 004°55'713.3
2017-Sep-19 23:00N 49°58' W 004°45'713.1
2017-Sep-19 22:30N 49°60' W 004°35'612.9
2017-Sep-19 22:00N 50°01' W 004°25'612.7
2017-Sep-19 21:30N 50°02' W 004°15'612.3
2017-Sep-19 21:00N 50°03' W 004°06'612.0
2017-Sep-19 20:30N 50°04' W 003°56'611.4
2017-Sep-19 20:00N 50°05' W 003°48'510.9
2017-Sep-19 19:30N 50°06' W 003°39'510.3
2017-Sep-19 19:00N 50°07' W 003°31'510.0
2017-Sep-19 18:30N 50°08' W 003°24'510.0
2017-Sep-19 18:00N 50°09' W 003°16'510.1
2017-Sep-19 17:30N 50°10' W 003°08'510.4
2017-Sep-19 17:00N 50°11' W 003°00'511.0
2017-Sep-19 16:30N 50°12' W 002°52'611.4
2017-Sep-19 16:00N 50°13' W 002°43'612.3
2017-Sep-19 15:30N 50°14' W 002°34'713.1
2017-Sep-19 15:00N 50°15' W 002°24'4215.0
2017-Sep-19 12:14N 50°23' W 001°19'415.3
2017-Sep-19 12:00N 50°24' W 001°14'715.0
2017-Sep-19 11:30N 50°25' W 001°02'714.2
2017-Sep-19 10:59N 50°26' W 000°51'712.7
2017-Sep-19 10:24N 50°28' W 000°40'511.6
2017-Sep-19 09:59N 50°29' W 000°32'611.2
2017-Sep-19 09:26N 50°30' W 000°23'510.8
2017-Sep-19 09:00N 50°31' W 000°15'510.5
2017-Sep-19 08:30N 50°32' W 000°07'510.5
2017-Sep-19 08:00N 50°33' E 000°01'510.4
2017-Sep-19 07:30N 50°34' E 000°09'510.4
2017-Sep-19 07:00N 50°36' E 000°16'511.0
2017-Sep-19 06:30N 50°37' E 000°25'611.9
2017-Sep-19 06:00N 50°39' E 000°34'612.9
2017-Sep-19 05:30N 50°42' E 000°42'713.6
2017-Sep-19 05:00N 50°46' E 000°51'713.9
2017-Sep-19 04:30N 50°50' E 000°60'713.9
2017-Sep-19 04:00N 50°55' E 001°09'713.7
2017-Sep-19 03:30N 50°59' E 001°17'713.2
2017-Sep-19 03:00N 51°03' E 001°25'612.2
2017-Sep-19 02:30N 51°07' E 001°33'511.0
2017-Sep-19 02:00N 51°11' E 001°39'510.9
2017-Sep-19 01:30N 51°14' E 001°46'611.2
2017-Sep-19 01:00N 51°19' E 001°51'510.9
2017-Sep-19 00:30N 51°23' E 001°56'611.0
2017-Sep-19 00:00N 51°28' E 002°01'611.3
2017-Sep-18 23:30N 51°32' E 002°06'611.6
2017-Sep-18 23:00N 51°37' E 002°13'611.7
2017-Sep-18 22:30N 51°41' E 002°19'612.2
2017-Sep-18 22:00N 51°45' E 002°26'4512.3
2017-Sep-18 18:23N 52°04' E 003°32'512.5
2017-Sep-18 18:00N 52°04' E 003°40'612.4
2017-Sep-18 17:30N 52°03' E 003°49'5 9.5
2017-Sep-18 17:00N 52°02' E 003°57'613.0
2017-Sep-18 16:31N 51°59' E 004°06'713.4
2017-Sep-18 16:00N 51°55' E 004°15'611.1
2017-Sep-18 15:30N 51°54' E 004°24'3 5.5
2017-Sep-18 14:58N 51°54' E 004°28'0 0.0
2017-Sep-18 14:24N 51°54' E 004°28'0 0.0
2017-Sep-18 14:00N 51°54' E 004°28'0 0.0
2017-Sep-18 13:28N 51°54' E 004°28'0 0.0
2017-Sep-18 12:54N 51°54' E 004°28'0 0.0
2017-Sep-18 12:31N 51°54' E 004°28'0 0.0
2017-Sep-18 12:00N 51°54' E 004°28'0 0.0
2017-Sep-18 11:28N 51°54' E 004°28'0 0.0
2017-Sep-18 10:57N 51°54' E 004°28'0 0.0
2017-Sep-18 10:23N 51°54' E 004°28'0 0.0
2017-Sep-18 10:01N 51°54' E 004°28'0 0.0
2017-Sep-18 09:26N 51°54' E 004°28'0 0.0
2017-Sep-18 08:54N 51°54' E 004°28'0 0.0
2017-Sep-18 08:24N 51°54' E 004°28'0 0.0
2017-Sep-18 08:01N 51°54' E 004°28'0 0.0
2017-Sep-18 07:27N 51°54' E 004°28'0 0.0
2017-Sep-18 06:55N 51°54' E 004°28'0 0.0
2017-Sep-18 06:30N 51°54' E 004°28'0 0.0
2017-Sep-18 05:57N 51°54' E 004°28'0 0.0
2017-Sep-18 05:28N 51°54' E 004°28'0 0.0
2017-Sep-18 04:55N 51°54' E 004°28'0 0.0
2017-Sep-18 04:23N 51°54' E 004°28'0 0.0
2017-Sep-18 03:59N 51°54' E 004°28'0 0.0
2017-Sep-18 03:28N 51°54' E 004°28'0 0.0
2017-Sep-18 02:56N 51°54' E 004°28'0 0.0
2017-Sep-18 02:24N 51°54' E 004°28'0 0.0
2017-Sep-18 01:57N 51°54' E 004°28'0 0.0
2017-Sep-18 01:30N 51°54' E 004°28'0 0.0
2017-Sep-18 00:54N 51°54' E 004°28'0 0.0
2017-Sep-18 00:27N 51°54' E 004°28'0 0.0
2017-Sep-17 23:57N 51°54' E 004°28'0 0.0
2017-Sep-17 23:27N 51°54' E 004°28'0 0.0
2017-Sep-17 22:57N 51°54' E 004°28'0 0.0
2017-Sep-17 22:24N 51°54' E 004°28'0 0.0
2017-Sep-17 21:58N 51°54' E 004°28'0 0.0
2017-Sep-17 21:28N 51°54' E 004°28'0 0.0
2017-Sep-17 20:59N 51°54' E 004°28'0 0.0
2017-Sep-17 20:29N 51°54' E 004°28'0 0.0
2017-Sep-17 19:57N 51°54' E 004°28'0 0.0
2017-Sep-17 19:27N 51°54' E 004°28'0 0.0
2017-Sep-17 18:59N 51°54' E 004°28'0 0.0
2017-Sep-17 18:27N 51°54' E 004°28'0 0.0
2017-Sep-17 17:59N 51°54' E 004°28'0 0.0
2017-Sep-17 17:28N 51°54' E 004°28'0 0.0
2017-Sep-17 16:58N 51°54' E 004°28'0 0.0
2017-Sep-17 16:23N 51°54' E 004°28'0 0.0
2017-Sep-17 15:58N 51°54' E 004°28'0 0.0
2017-Sep-17 15:25N 51°54' E 004°28'0 0.0
2017-Sep-17 14:59N 51°54' E 004°28'0 0.0
2017-Sep-17 14:24N 51°54' E 004°28'0 0.0
2017-Sep-17 13:57N 51°54' E 004°28'0 0.0
2017-Sep-17 13:28N 51°54' E 004°28'0 0.0
2017-Sep-17 12:56N 51°54' E 004°28'0 0.0
2017-Sep-17 12:30N 51°54' E 004°28'0 0.0
2017-Sep-17 12:00N 51°54' E 004°28'0 0.0
2017-Sep-17 11:29N 51°54' E 004°28'0 0.0
2017-Sep-17 10:59N 51°54' E 004°28'0 0.0
2017-Sep-17 10:29N 51°54' E 004°28'0 0.0
2017-Sep-17 09:57N 51°54' E 004°28'0 0.0
2017-Sep-17 09:25N 51°54' E 004°28'0 0.0
2017-Sep-17 08:54N 51°54' E 004°28'0 0.0
2017-Sep-17 08:24N 51°54' E 004°28'0 0.0
2017-Sep-17 07:57N 51°54' E 004°28'0 0.0
2017-Sep-17 07:29N 51°54' E 004°28'0 0.0
2017-Sep-17 06:54N 51°54' E 004°28'0 0.0
2017-Sep-17 06:27N 51°54' E 004°28'0 0.0
2017-Sep-17 05:57N 51°54' E 004°28'0 0.0
2017-Sep-17 05:27N 51°54' E 004°28'0 0.0
2017-Sep-17 04:53N 51°54' E 004°28'0 0.0
2017-Sep-17 04:30N 51°54' E 004°28'0 0.0
2017-Sep-17 04:00N 51°54' E 004°28'0 0.0
2017-Sep-17 03:30N 51°54' E 004°28'0 0.0
2017-Sep-17 02:53N 51°54' E 004°28'0 0.0
2017-Sep-17 02:24N 51°54' E 004°28'0 0.0
2017-Sep-17 01:57N 51°54' E 004°28'0 0.0
2017-Sep-17 01:30N 51°54' E 004°28'0 0.0
2017-Sep-17 00:55N 51°54' E 004°28'0 0.0
2017-Sep-17 00:24N 51°54' E 004°28'0 0.0
2017-Sep-17 00:00N 51°54' E 004°28'0 0.0
2017-Sep-16 23:27N 51°54' E 004°28'0 0.0
2017-Sep-16 22:55N 51°54' E 004°28'0 0.0
2017-Sep-16 22:23N 51°54' E 004°28'0 0.0
2017-Sep-16 22:00N 51°54' E 004°28'0 0.0
2017-Sep-16 21:30N 51°54' E 004°28'0 0.0
2017-Sep-16 20:58N 51°54' E 004°28'0 0.0
2017-Sep-16 20:23N 51°54' E 004°28'0 0.0
2017-Sep-16 20:00N 51°54' E 004°28'0 0.0
2017-Sep-16 19:26N 51°54' E 004°28'0 0.0
2017-Sep-16 18:56N 51°54' E 004°28'0 0.0
2017-Sep-16 18:30N 51°54' E 004°28'0 0.0
2017-Sep-16 17:59N 51°54' E 004°28'0 0.0
2017-Sep-16 17:27N 51°54' E 004°28'0 0.0
2017-Sep-16 16:55N 51°54' E 004°28'0 0.0
2017-Sep-16 16:27N 51°54' E 004°28'0 0.0
2017-Sep-16 16:00N 51°54' E 004°28'0 0.0
2017-Sep-16 15:25N 51°54' E 004°28'0 0.0
2017-Sep-16 14:53N 51°54' E 004°28'0 0.0
2017-Sep-16 14:29N 51°54' E 004°28'0 0.0
2017-Sep-16 13:57N 51°54' E 004°28'0 0.0
2017-Sep-16 13:26N 51°54' E 004°28'0 0.0
2017-Sep-16 12:56N 51°54' E 004°28'0 0.0
2017-Sep-16 12:29N 51°54' E 004°28'0 0.0
2017-Sep-16 11:58N 51°54' E 004°28'0 0.0
2017-Sep-16 11:28N 51°54' E 004°28'0 0.0
2017-Sep-16 11:00N 51°54' E 004°28'0 0.0
2017-Sep-16 10:30N 51°54' E 004°28'0 0.0
2017-Sep-16 10:00N 51°54' E 004°28'0 0.0
2017-Sep-16 09:26N 51°54' E 004°28'0 0.0
2017-Sep-16 08:54N 51°54' E 004°28'0 0.0
2017-Sep-16 08:30N 51°54' E 004°28'0 0.0
2017-Sep-16 08:00N 51°54' E 004°28'0 0.0
2017-Sep-16 07:25N 51°54' E 004°28'0 0.0
2017-Sep-16 06:56N 51°54' E 004°28'0 0.0
2017-Sep-16 06:30N 51°54' E 004°28'0 0.0
2017-Sep-16 05:58N 51°54' E 004°28'0 0.0
2017-Sep-16 05:27N 51°54' E 004°28'0 0.0
2017-Sep-16 04:54N 51°54' E 004°28'0 0.0
2017-Sep-16 04:30N 51°54' E 004°28'0 0.0
2017-Sep-16 03:57N 51°54' E 004°28'0 0.0
2017-Sep-16 03:29N 51°54' E 004°28'0 0.0
2017-Sep-16 02:54N 51°54' E 004°28'0 0.0
2017-Sep-16 02:30N 51°54' E 004°28'0 0.0
2017-Sep-16 02:00N 51°54' E 004°28'0 0.0
2017-Sep-16 01:28N 51°54' E 004°28'0 0.0
2017-Sep-16 00:57N 51°54' E 004°28'0 0.0
2017-Sep-16 00:30N 51°54' E 004°28'0 0.0
2017-Sep-16 00:00N 51°54' E 004°28'0 0.0
2017-Sep-15 23:25N 51°54' E 004°28'0 0.0
2017-Sep-15 22:58N 51°54' E 004°28'0 0.0
2017-Sep-15 22:29N 51°54' E 004°28'0 0.0
2017-Sep-15 21:58N 51°54' E 004°28'0 0.0
2017-Sep-15 21:27N 51°54' E 004°28'0 0.0
2017-Sep-15 20:53N 51°54' E 004°28'0 0.0
2017-Sep-15 20:27N 51°54' E 004°28'0 0.0
2017-Sep-15 20:00N 51°54' E 004°28'0 0.0
2017-Sep-15 19:25N 51°54' E 004°28'0 0.0
2017-Sep-15 18:55N 51°54' E 004°28'0 0.0
2017-Sep-15 18:23N 51°54' E 004°28'0 0.0
2017-Sep-15 18:00N 51°54' E 004°28'0 0.0
2017-Sep-15 17:28N 51°54' E 004°28'0 0.0
2017-Sep-15 16:58N 51°54' E 004°28'0 0.0
2017-Sep-15 16:24N 51°54' E 004°28'0 0.0
2017-Sep-15 15:57N 51°54' E 004°28'0 0.0
2017-Sep-15 15:25N 51°54' E 004°28'0 0.0
2017-Sep-15 14:58N 51°54' E 004°28'0 0.0
2017-Sep-15 14:29N 51°54' E 004°28'0 0.0
2017-Sep-15 13:59N 51°54' E 004°28'0 0.0
2017-Sep-15 13:25N 51°54' E 004°28'0 0.0
2017-Sep-15 12:54N 51°54' E 004°28'0 0.0
2017-Sep-15 12:23N 51°54' E 004°28'0 0.0
2017-Sep-15 11:57N 51°54' E 004°28'0 0.0
2017-Sep-15 11:28N 51°54' E 004°28'0 0.0
2017-Sep-15 10:53N 51°54' E 004°28'0 0.0
2017-Sep-15 10:29N 51°54' E 004°28'0 0.0
2017-Sep-15 09:58N 51°54' E 004°28'0 0.0
2017-Sep-15 09:30N 51°54' E 004°28'0 0.0
2017-Sep-15 08:53N 51°54' E 004°28'0 0.0
2017-Sep-15 08:30N 51°54' E 004°28'0 0.0
2017-Sep-15 07:58N 51°54' E 004°28'0 0.0
2017-Sep-15 07:29N 51°54' E 004°28'0 0.0
2017-Sep-15 06:59N 51°54' E 004°28'0 0.0
2017-Sep-15 06:30N 51°54' E 004°28'0 0.0
2017-Sep-15 05:59N 51°54' E 004°28'0 0.0
2017-Sep-15 05:29N 51°54' E 004°28'0 0.0
2017-Sep-15 04:55N 51°54' E 004°28'0 0.0
2017-Sep-15 04:24N 51°54' E 004°28'0 0.0
2017-Sep-15 04:00N 51°54' E 004°28'0 0.0
2017-Sep-15 03:25N 51°54' E 004°28'0 0.0
2017-Sep-15 02:55N 51°54' E 004°28'0 0.0
2017-Sep-15 02:27N 51°54' E 004°28'0 0.0
2017-Sep-15 02:00N 51°54' E 004°28'0 0.0
2017-Sep-15 01:29N 51°54' E 004°28'0 0.0
2017-Sep-15 00:59N 51°54' E 004°28'0 0.0
2017-Sep-15 00:30N 51°54' E 004°28'2 3.8
2017-Sep-15 00:00N 51°54' E 004°25'0 0.6
2017-Sep-14 23:24N 51°54' E 004°25'0 0.0
2017-Sep-14 23:00N 51°54' E 004°25'0 0.0
2017-Sep-14 22:28N 51°54' E 004°25'0 0.0
2017-Sep-14 21:56N 51°54' E 004°25'0 0.0
2017-Sep-14 21:28N 51°54' E 004°25'0 0.0
2017-Sep-14 20:58N 51°54' E 004°25'0 0.0
2017-Sep-14 20:27N 51°54' E 004°25'0 0.0
2017-Sep-14 20:01N 51°54' E 004°25'0 0.0
2017-Sep-14 19:29N 51°54' E 004°25'0 0.0
2017-Sep-14 18:58N 51°54' E 004°25'0 0.0
2017-Sep-14 18:26N 51°54' E 004°25'0 0.0
2017-Sep-14 17:57N 51°54' E 004°25'0 0.0
2017-Sep-14 16:28N 51°54' E 004°25'0 0.0
2017-Sep-14 15:57N 51°54' E 004°25'0 0.0
2017-Sep-14 15:30N 51°54' E 004°25'0 0.0
2017-Sep-14 14:59N 51°54' E 004°25'0 0.0
2017-Sep-14 14:30N 51°54' E 004°25'0 0.0
2017-Sep-14 14:00N 51°54' E 004°25'0 0.0
2017-Sep-14 13:30N 51°54' E 004°25'0 0.0
2017-Sep-14 13:00N 51°54' E 004°25'  
Track history (hours):
 
Tides and Currents Weather Stations Pressure Air Temp Water Temp Dewpoint Dewpoint Depression Visibility Wind Speed Wind Dir Waves Ship Positions

Zaanborg

Last reported at 2017-Sep-24 12:51 UTC. Time now 2017-Sep-25 11:33 UTC.
Position N 58°41' W 002°33'.

Length 118 m; draft 7.2 m.

Type: Cargo ship. MMSI: 244830818.

Date/timePositionNaut miles runAvg speedWind from/ knotsBaromVisibWave heightAir tempDewpointWater temp
2017-Sep-24 12:51N 58°41' W 002°33'3 9.8
2017-Sep-24 12:30N 58°41' W 002°40'611.1
2017-Sep-24 12:00N 58°42' W 002°50'815.5
2017-Sep-24 11:30N 58°42' W 003°05'715.0
2017-Sep-24 11:00N 58°42' W 003°19'713.4
2017-Sep-24 10:30N 58°42' W 003°32'612.7
2017-Sep-24 10:00N 58°42' W 003°44'612.3
2017-Sep-24 09:30N 58°41' W 003°56'612.4
2017-Sep-24 09:00N 58°41' W 004°08'3510.9
2017-Sep-24 05:49N 58°31' W 005°13'410.7
2017-Sep-24 05:29N 58°29' W 005°17'309 6.0
2017-Sep-22 01:56N 53°21' W 006°13'0 0.0
2017-Sep-21 21:27N 53°21' W 006°13'0 0.0
2017-Sep-21 21:00N 53°21' W 006°13'0 0.0
2017-Sep-21 20:30N 53°21' W 006°13'0 0.0
2017-Sep-21 20:00N 53°21' W 006°13'0 0.0
2017-Sep-21 18:41N 53°21' W 006°13'0 0.0
2017-Sep-21 18:20N 53°21' W 006°13'0 0.0
2017-Sep-21 16:20N 53°21' W 006°13'0 0.0
2017-Sep-21 15:50N 53°21' W 006°13'0 0.0
2017-Sep-21 15:30N 53°21' W 006°13'0 0.0
2017-Sep-21 14:59N 53°21' W 006°13'0 0.0
2017-Sep-21 13:53N 53°21' W 006°13'0 0.0
2017-Sep-21 12:23N 53°21' W 006°13'0 0.0
2017-Sep-21 11:44N 53°21' W 006°13'0 0.0
2017-Sep-21 10:33N 53°21' W 006°13'0 0.0
2017-Sep-21 10:30N 53°21' W 006°13'0 0.0
2017-Sep-21 04:16N 53°21' W 006°13'0 0.0
2017-Sep-21 03:14N 53°21' W 006°13'0 0.0
2017-Sep-21 00:46N 53°21' W 006°13'0 0.0
2017-Sep-21 00:27N 53°21' W 006°13'1 3.0
2017-Sep-21 00:00N 53°21' W 006°11'4 1.5
2017-Sep-20 21:05N 53°19' W 006°04'0 0.1
2017-Sep-20 20:59N 53°19' W 006°04'0 0.0
2017-Sep-20 20:28N 53°19' W 006°04'0 0.0
2017-Sep-20 19:50N 53°19' W 006°04'0 0.0
2017-Sep-20 19:26N 53°19' W 006°04'0 0.1
2017-Sep-20 18:52N 53°19' W 006°04'1 2.9
2017-Sep-20 18:28N 53°19' W 006°02'5111.4
2017-Sep-20 14:00N 52°28' W 005°50'510.0
2017-Sep-20 13:30N 52°23' W 005°50'510.2
2017-Sep-20 13:01N 52°18' W 005°50'510.5
2017-Sep-20 12:30N 52°13' W 005°49'510.8
2017-Sep-20 12:00N 52°07' W 005°49'3612.8
2017-Sep-20 09:12N 51°31' W 005°49'2013.3
2017-Sep-20 07:42N 51°12' W 005°50'312.9
2017-Sep-20 07:30N 51°09' W 005°50'812.8
2017-Sep-20 06:52N 51°01' W 005°50'513.0
2017-Sep-20 06:29N 50°56' W 005°50'613.0
2017-Sep-20 06:01N 50°50' W 005°50'713.2
2017-Sep-20 05:30N 50°43' W 005°51'713.3
2017-Sep-20 05:01N 50°36' W 005°51'713.4
2017-Sep-20 04:31N 50°30' W 005°50'713.8
2017-Sep-20 04:00N 50°23' W 005°52'713.9
2017-Sep-20 03:30N 50°16' W 005°52'814.3
2017-Sep-20 02:57N 50°08' W 005°52'814.2
2017-Sep-20 02:25N 50°00' W 005°52'512.6
2017-Sep-20 02:00N 49°59' W 005°44'612.7
2017-Sep-20 01:30N 49°58' W 005°34'612.3
2017-Sep-20 01:00N 49°57' W 005°25'612.8
2017-Sep-20 00:30N 49°56' W 005°15'713.4
2017-Sep-20 00:00N 49°56' W 005°05'713.3
2017-Sep-19 23:30N 49°57' W 004°55'713.3
2017-Sep-19 23:00N 49°58' W 004°45'713.1
2017-Sep-19 22:30N 49°60' W 004°35'612.9
2017-Sep-19 22:00N 50°01' W 004°25'612.7
2017-Sep-19 21:30N 50°02' W 004°15'612.3
2017-Sep-19 21:00N 50°03' W 004°06'612.0
2017-Sep-19 20:30N 50°04' W 003°56'611.4
2017-Sep-19 20:00N 50°05' W 003°48'510.9
2017-Sep-19 19:30N 50°06' W 003°39'510.3
2017-Sep-19 19:00N 50°07' W 003°31'510.0
2017-Sep-19 18:30N 50°08' W 003°24'510.0
2017-Sep-19 18:00N 50°09' W 003°16'510.1
2017-Sep-19 17:30N 50°10' W 003°08'510.4
2017-Sep-19 17:00N 50°11' W 003°00'511.0
2017-Sep-19 16:30N 50°12' W 002°52'611.4
2017-Sep-19 16:00N 50°13' W 002°43'612.3
2017-Sep-19 15:30N 50°14' W 002°34'713.1
2017-Sep-19 15:00N 50°15' W 002°24'4215.0
2017-Sep-19 12:14N 50°23' W 001°19'415.3
2017-Sep-19 12:00N 50°24' W 001°14'715.0
2017-Sep-19 11:30N 50°25' W 001°02'714.2
2017-Sep-19 10:59N 50°26' W 000°51'712.7
2017-Sep-19 10:24N 50°28' W 000°40'511.6
2017-Sep-19 09:59N 50°29' W 000°32'611.2
2017-Sep-19 09:26N 50°30' W 000°23'510.8
2017-Sep-19 09:00N 50°31' W 000°15'510.5
2017-Sep-19 08:30N 50°32' W 000°07'510.5
2017-Sep-19 08:00N 50°33' E 000°01'510.4
2017-Sep-19 07:30N 50°34' E 000°09'510.4
2017-Sep-19 07:00N 50°36' E 000°16'511.0
2017-Sep-19 06:30N 50°37' E 000°25'611.9
2017-Sep-19 06:00N 50°39' E 000°34'612.9
2017-Sep-19 05:30N 50°42' E 000°42'713.6
2017-Sep-19 05:00N 50°46' E 000°51'713.9
2017-Sep-19 04:30N 50°50' E 000°60'713.9
2017-Sep-19 04:00N 50°55' E 001°09'713.7
2017-Sep-19 03:30N 50°59' E 001°17'713.2
2017-Sep-19 03:00N 51°03' E 001°25'612.2
2017-Sep-19 02:30N 51°07' E 001°33'511.0
2017-Sep-19 02:00N 51°11' E 001°39'510.9
2017-Sep-19 01:30N 51°14' E 001°46'611.2
2017-Sep-19 01:00N 51°19' E 001°51'510.9
2017-Sep-19 00:30N 51°23' E 001°56'611.0
2017-Sep-19 00:00N 51°28' E 002°01'611.3
2017-Sep-18 23:30N 51°32' E 002°06'611.6
2017-Sep-18 23:00N 51°37' E 002°13'611.7
2017-Sep-18 22:30N 51°41' E 002°19'612.2
2017-Sep-18 22:00N 51°45' E 002°26'4512.3
2017-Sep-18 18:23N 52°04' E 003°32'512.5
2017-Sep-18 18:00N 52°04' E 003°40'612.4
2017-Sep-18 17:30N 52°03' E 003°49'5 9.5
2017-Sep-18 17:00N 52°02' E 003°57'613.0
2017-Sep-18 16:31N 51°59' E 004°06'713.4
2017-Sep-18 16:00N 51°55' E 004°15'611.1
2017-Sep-18 15:30N 51°54' E 004°24'3 5.5
2017-Sep-18 14:58N 51°54' E 004°28'0 0.0
2017-Sep-18 14:24N 51°54' E 004°28'0 0.0
2017-Sep-18 14:00N 51°54' E 004°28'0 0.0
2017-Sep-18 13:28N 51°54' E 004°28'0 0.0
2017-Sep-18 12:54N 51°54' E 004°28'0 0.0
2017-Sep-18 12:31N 51°54' E 004°28'0 0.0
2017-Sep-18 12:00N 51°54' E 004°28'0 0.0
2017-Sep-18 11:28N 51°54' E 004°28'0 0.0
2017-Sep-18 10:57N 51°54' E 004°28'0 0.0
2017-Sep-18 10:23N 51°54' E 004°28'0 0.0
2017-Sep-18 10:01N 51°54' E 004°28'0 0.0
2017-Sep-18 09:26N 51°54' E 004°28'0 0.0
2017-Sep-18 08:54N 51°54' E 004°28'0 0.0
2017-Sep-18 08:24N 51°54' E 004°28'0 0.0
2017-Sep-18 08:01N 51°54' E 004°28'0 0.0
2017-Sep-18 07:27N 51°54' E 004°28'0 0.0
2017-Sep-18 06:55N 51°54' E 004°28'0 0.0
2017-Sep-18 06:30N 51°54' E 004°28'0 0.0
2017-Sep-18 05:57N 51°54' E 004°28'0 0.0
2017-Sep-18 05:28N 51°54' E 004°28'0 0.0
2017-Sep-18 04:55N 51°54' E 004°28'0 0.0
2017-Sep-18 04:23N 51°54' E 004°28'0 0.0
2017-Sep-18 03:59N 51°54' E 004°28'0 0.0
2017-Sep-18 03:28N 51°54' E 004°28'0 0.0
2017-Sep-18 02:56N 51°54' E 004°28'0 0.0
2017-Sep-18 02:24N 51°54' E 004°28'0 0.0
2017-Sep-18 01:57N 51°54' E 004°28'0 0.0
2017-Sep-18 01:30N 51°54' E 004°28'0 0.0
2017-Sep-18 00:54N 51°54' E 004°28'0 0.0
2017-Sep-18 00:27N 51°54' E 004°28'0 0.0
2017-Sep-17 23:57N 51°54' E 004°28'0 0.0
2017-Sep-17 23:27N 51°54' E 004°28'0 0.0
2017-Sep-17 22:57N 51°54' E 004°28'0 0.0
2017-Sep-17 22:24N 51°54' E 004°28'0 0.0
2017-Sep-17 21:58N 51°54' E 004°28'0 0.0
2017-Sep-17 21:28N 51°54' E 004°28'0 0.0
2017-Sep-17 20:59N 51°54' E 004°28'0 0.0
2017-Sep-17 20:29N 51°54' E 004°28'0 0.0
2017-Sep-17 19:57N 51°54' E 004°28'0 0.0
2017-Sep-17 19:27N 51°54' E 004°28'0 0.0
2017-Sep-17 18:59N 51°54' E 004°28'0 0.0
2017-Sep-17 18:27N 51°54' E 004°28'0 0.0
2017-Sep-17 17:59N 51°54' E 004°28'0 0.0
2017-Sep-17 17:28N 51°54' E 004°28'0 0.0
2017-Sep-17 16:58N 51°54' E 004°28'0 0.0
2017-Sep-17 16:23N 51°54' E 004°28'0 0.0
2017-Sep-17 15:58N 51°54' E 004°28'0 0.0
2017-Sep-17 15:25N 51°54' E 004°28'0 0.0
2017-Sep-17 14:59N 51°54' E 004°28'0 0.0
2017-Sep-17 14:24N 51°54' E 004°28'0 0.0
2017-Sep-17 13:57N 51°54' E 004°28'0 0.0
2017-Sep-17 13:28N 51°54' E 004°28'0 0.0
2017-Sep-17 12:56N 51°54' E 004°28'0 0.0
2017-Sep-17 12:30N 51°54' E 004°28'0 0.0
2017-Sep-17 12:00N 51°54' E 004°28'0 0.0
2017-Sep-17 11:29N 51°54' E 004°28'0 0.0
2017-Sep-17 10:59N 51°54' E 004°28'0 0.0
2017-Sep-17 10:29N 51°54' E 004°28'0 0.0
2017-Sep-17 09:57N 51°54' E 004°28'0 0.0
2017-Sep-17 09:25N 51°54' E 004°28'0 0.0
2017-Sep-17 08:54N 51°54' E 004°28'0 0.0
2017-Sep-17 08:24N 51°54' E 004°28'0 0.0
2017-Sep-17 07:57N 51°54' E 004°28'0 0.0
2017-Sep-17 07:29N 51°54' E 004°28'0 0.0
2017-Sep-17 06:54N 51°54' E 004°28'0 0.0
2017-Sep-17 06:27N 51°54' E 004°28'0 0.0
2017-Sep-17 05:57N 51°54' E 004°28'0 0.0
2017-Sep-17 05:27N 51°54' E 004°28'0 0.0
2017-Sep-17 04:53N 51°54' E 004°28'0 0.0
2017-Sep-17 04:30N 51°54' E 004°28'0 0.0
2017-Sep-17 04:00N 51°54' E 004°28'0 0.0
2017-Sep-17 03:30N 51°54' E 004°28'0 0.0
2017-Sep-17 02:53N 51°54' E 004°28'0 0.0
2017-Sep-17 02:24N 51°54' E 004°28'0 0.0
2017-Sep-17 01:57N 51°54' E 004°28'0 0.0
2017-Sep-17 01:30N 51°54' E 004°28'0 0.0
2017-Sep-17 00:55N 51°54' E 004°28'0 0.0
2017-Sep-17 00:24N 51°54' E 004°28'0 0.0
2017-Sep-17 00:00N 51°54' E 004°28'0 0.0
2017-Sep-16 23:27N 51°54' E 004°28'0 0.0
2017-Sep-16 22:55N 51°54' E 004°28'0 0.0
2017-Sep-16 22:23N 51°54' E 004°28'0 0.0
2017-Sep-16 22:00N 51°54' E 004°28'0 0.0
2017-Sep-16 21:30N 51°54' E 004°28'0 0.0
2017-Sep-16 20:58N 51°54' E 004°28'0 0.0
2017-Sep-16 20:23N 51°54' E 004°28'0 0.0
2017-Sep-16 20:00N 51°54' E 004°28'0 0.0
2017-Sep-16 19:26N 51°54' E 004°28'0 0.0
2017-Sep-16 18:56N 51°54' E 004°28'0 0.0
2017-Sep-16 18:30N 51°54' E 004°28'0 0.0
2017-Sep-16 17:59N 51°54' E 004°28'0 0.0
2017-Sep-16 17:27N 51°54' E 004°28'0 0.0
2017-Sep-16 16:55N 51°54' E 004°28'0 0.0
2017-Sep-16 16:27N 51°54' E 004°28'0 0.0
2017-Sep-16 16:00N 51°54' E 004°28'0 0.0
2017-Sep-16 15:25N 51°54' E 004°28'0 0.0
2017-Sep-16 14:53N 51°54' E 004°28'0 0.0
2017-Sep-16 14:29N 51°54' E 004°28'0 0.0
2017-Sep-16 13:57N 51°54' E 004°28'0 0.0
2017-Sep-16 13:26N 51°54' E 004°28'0 0.0
2017-Sep-16 12:56N 51°54' E 004°28'0 0.0
2017-Sep-16 12:29N 51°54' E 004°28'0 0.0
2017-Sep-16 11:58N 51°54' E 004°28'0 0.0
2017-Sep-16 11:28N 51°54' E 004°28'0 0.0
2017-Sep-16 11:00N 51°54' E 004°28'0 0.0
2017-Sep-16 10:30N 51°54' E 004°28'0 0.0
2017-Sep-16 10:00N 51°54' E 004°28'0 0.0
2017-Sep-16 09:26N 51°54' E 004°28'0 0.0
2017-Sep-16 08:54N 51°54' E 004°28'0 0.0
2017-Sep-16 08:30N 51°54' E 004°28'0 0.0
2017-Sep-16 08:00N 51°54' E 004°28'0 0.0
2017-Sep-16 07:25N 51°54' E 004°28'0 0.0
2017-Sep-16 06:56N 51°54' E 004°28'0 0.0
2017-Sep-16 06:30N 51°54' E 004°28'0 0.0
2017-Sep-16 05:58N 51°54' E 004°28'0 0.0
2017-Sep-16 05:27N 51°54' E 004°28'0 0.0
2017-Sep-16 04:54N 51°54' E 004°28'0 0.0
2017-Sep-16 04:30N 51°54' E 004°28'0 0.0
2017-Sep-16 03:57N 51°54' E 004°28'0 0.0
2017-Sep-16 03:29N 51°54' E 004°28'0 0.0
2017-Sep-16 02:54N 51°54' E 004°28'0 0.0
2017-Sep-16 02:30N 51°54' E 004°28'0 0.0
2017-Sep-16 02:00N 51°54' E 004°28'0 0.0
2017-Sep-16 01:28N 51°54' E 004°28'0 0.0
2017-Sep-16 00:57N 51°54' E 004°28'0 0.0
2017-Sep-16 00:30N 51°54' E 004°28'0 0.0
2017-Sep-16 00:00N 51°54' E 004°28'0 0.0
2017-Sep-15 23:25N 51°54' E 004°28'0 0.0
2017-Sep-15 22:58N 51°54' E 004°28'0 0.0
2017-Sep-15 22:29N 51°54' E 004°28'0 0.0
2017-Sep-15 21:58N 51°54' E 004°28'0 0.0
2017-Sep-15 21:27N 51°54' E 004°28'0 0.0
2017-Sep-15 20:53N 51°54' E 004°28'0 0.0
2017-Sep-15 20:27N 51°54' E 004°28'0 0.0
2017-Sep-15 20:00N 51°54' E 004°28'0 0.0
2017-Sep-15 19:25N 51°54' E 004°28'0 0.0
2017-Sep-15 18:55N 51°54' E 004°28'0 0.0
2017-Sep-15 18:23N 51°54' E 004°28'0 0.0
2017-Sep-15 18:00N 51°54' E 004°28'0 0.0
2017-Sep-15 17:28N 51°54' E 004°28'0 0.0
2017-Sep-15 16:58N 51°54' E 004°28'0 0.0
2017-Sep-15 16:24N 51°54' E 004°28'0 0.0
2017-Sep-15 15:57N 51°54' E 004°28'0 0.0
2017-Sep-15 15:25N 51°54' E 004°28'0 0.0
2017-Sep-15 14:58N 51°54' E 004°28'0 0.0
2017-Sep-15 14:29N 51°54' E 004°28'0 0.0
2017-Sep-15 13:59N 51°54' E 004°28'0 0.0
2017-Sep-15 13:25N 51°54' E 004°28'0 0.0
2017-Sep-15 12:54N 51°54' E 004°28'0 0.0
2017-Sep-15 12:23N 51°54' E 004°28'0 0.0
2017-Sep-15 11:57N 51°54' E 004°28'0 0.0
2017-Sep-15 11:28N 51°54' E 004°28'0 0.0
2017-Sep-15 10:53N 51°54' E 004°28'0 0.0
2017-Sep-15 10:29N 51°54' E 004°28'0 0.0
2017-Sep-15 09:58N 51°54' E 004°28'0 0.0
2017-Sep-15 09:30N 51°54' E 004°28'0 0.0
2017-Sep-15 08:53N 51°54' E 004°28'0 0.0
2017-Sep-15 08:30N 51°54' E 004°28'0 0.0
2017-Sep-15 07:58N 51°54' E 004°28'0 0.0
2017-Sep-15 07:29N 51°54' E 004°28'0 0.0
2017-Sep-15 06:59N 51°54' E 004°28'0 0.0
2017-Sep-15 06:30N 51°54' E 004°28'0 0.0
2017-Sep-15 05:59N 51°54' E 004°28'0 0.0
2017-Sep-15 05:29N 51°54' E 004°28'0 0.0
2017-Sep-15 04:55N 51°54' E 004°28'0 0.0
2017-Sep-15 04:24N 51°54' E 004°28'0 0.0
2017-Sep-15 04:00N 51°54' E 004°28'0 0.0
2017-Sep-15 03:25N 51°54' E 004°28'0 0.0
2017-Sep-15 02:55N 51°54' E 004°28'0 0.0
2017-Sep-15 02:27N 51°54' E 004°28'0 0.0
2017-Sep-15 02:00N 51°54' E 004°28'0 0.0
2017-Sep-15 01:29N 51°54' E 004°28'0 0.0
2017-Sep-15 00:59N 51°54' E 004°28'0 0.0
2017-Sep-15 00:30N 51°54' E 004°28'2 3.8
2017-Sep-15 00:00N 51°54' E 004°25'0 0.6
2017-Sep-14 23:24N 51°54' E 004°25'0 0.0
2017-Sep-14 23:00N 51°54' E 004°25'0 0.0
2017-Sep-14 22:28N 51°54' E 004°25'0 0.0
2017-Sep-14 21:56N 51°54' E 004°25'0 0.0
2017-Sep-14 21:28N 51°54' E 004°25'0 0.0
2017-Sep-14 20:58N 51°54' E 004°25'0 0.0
2017-Sep-14 20:27N 51°54' E 004°25'0 0.0
2017-Sep-14 20:01N 51°54' E 004°25'0 0.0
2017-Sep-14 19:29N 51°54' E 004°25'0 0.0
2017-Sep-14 18:58N 51°54' E 004°25'0 0.0
2017-Sep-14 18:26N 51°54' E 004°25'0 0.0
2017-Sep-14 17:57N 51°54' E 004°25'0 0.0
2017-Sep-14 16:28N 51°54' E 004°25'0 0.0
2017-Sep-14 15:57N 51°54' E 004°25'0 0.0
2017-Sep-14 15:30N 51°54' E 004°25'0 0.0
2017-Sep-14 14:59N 51°54' E 004°25'0 0.0
2017-Sep-14 14:30N 51°54' E 004°25'0 0.0
2017-Sep-14 14:00N 51°54' E 004°25'0 0.0
2017-Sep-14 13:30N 51°54' E 004°25'0 0.0
2017-Sep-14 13:00N 51°54' E 004°25'  

Dump ship's entire track history